Buoy 13519

sailwx.info

Track history (hours):
 
Tides and Currents Weather Stations Pressure Air Temp Water Temp Dewpoint Dewpoint Depression Visibility Wind Speed Wind Dir Waves Ship Positions

Drifting buoy 13519

Last reported at 2016-Aug-30 13:00 UTC. Time now 2016-Aug-30 17:04 UTC.
Position N 26°16' W 070°30'.

Barometer 1017.3 mb
Water temperature 34.1 ° C

Date/timePositionNaut miles runAvg speedWind from/ knotsBaromVisibWave heightAir tempDewpointWater temp
2016-Aug-30 13:00N 26°16' W 070°30'1 1.1 1017.3 34.1
2016-Aug-30 12:00N 26°15' W 070°30'0 0.4 1016.9 34.1
2016-Aug-30 11:00N 26°14' W 070°31'2 1.2 1016.3 34.1
2016-Aug-30 09:00N 26°12' W 070°31'   1015.5 34.1
2016-Aug-25 00:00N 24°21' W 071°00'3 0.3 1015.4 29.8
2016-Aug-24 15:00N 24°19' W 070°58'5 4.9 1016.5 29.8
2016-Aug-24 14:00N 24°15' W 070°55'0 0.0 1016.7 -0.1
2016-Aug-24 13:00N 24°15' W 070°55'0 0.0 1016.3 29.7
2016-Aug-24 02:00N 24°15' W 070°55'1 1.5 1017.2 29.8
2016-Aug-24 01:00N 24°14' W 070°53'0 0.0 1017.0 29.8
2016-Aug-24 00:00N 24°14' W 070°53'0 0.0 1016.8 29.9
2016-Aug-23 23:00N 24°14' W 070°53'1 0.4 1016.4 29.9
2016-Aug-23 20:00N 24°13' W 070°53'1 0.6 1016.1 30.1
2016-Aug-23 19:00N 24°12' W 070°53'0 0.0 1016.8 30.1
2016-Aug-23 17:00N 24°12' W 070°53'1 0.3 1018.2 30.0
2016-Aug-23 15:00N 24°12' W 070°53'2 2.1 1018.4 29.7
2016-Aug-23 14:00N 24°10' W 070°51'0 0.2 1018.3 29.6
2016-Aug-23 13:00N 24°10' W 070°51'2 0.9 1018.2 29.6
2016-Aug-23 11:00N 24°09' W 070°50'0 0.2 1017.8 29.6
2016-Aug-23 10:00N 24°09' W 070°50'1 1.2 1017.6 29.6
2016-Aug-23 09:00N 24°08' W 070°49'0 0.1 1016.9 29.6
2016-Aug-23 08:00N 24°08' W 070°49'0 0.0 1016.9 29.6
2016-Aug-23 07:00N 24°08' W 070°49'2 2.1 1016.9 29.6
2016-Aug-23 06:00N 24°08' W 070°47'0 0.1 1017.1 29.7
2016-Aug-23 02:00N 24°08' W 070°47'0 0.4 1018.5 29.9
2016-Aug-23 01:00N 24°08' W 070°47'0 0.0 1018.3 29.9
2016-Aug-23 00:00N 24°08' W 070°47'1 1.0 1017.9 30.0
2016-Aug-22 23:00N 24°07' W 070°46'0 0.5 1017.4 30.2
2016-Aug-22 22:00N 24°06' W 070°46'1 0.9 1016.9 30.4
2016-Aug-22 21:00N 24°06' W 070°46'0 0.0 1016.6 30.6
2016-Aug-22 20:00N 24°06' W 070°46'1 0.8 1016.9 30.8
2016-Aug-22 19:00N 24°05' W 070°45'2 0.4 1017.0 30.9
2016-Aug-22 15:00N 24°04' W 070°44'0 0.4 1018.6 30.1
2016-Aug-22 14:00N 24°05' W 070°44'1 1.2 1018.5 29.8
2016-Aug-22 13:00N 24°04' W 070°43'0 0.0 1018.5 29.7
2016-Aug-22 12:00N 24°04' W 070°43'0 0.2 1018.0 29.7
2016-Aug-22 11:00N 24°04' W 070°43'1 0.6 1017.6 29.6
2016-Aug-22 10:00N 24°03' W 070°42'1 0.3 1016.8 29.6
2016-Aug-22 08:00N 24°03' W 070°42'1 0.5 1016.6 29.7
2016-Aug-22 07:00N 24°02' W 070°42'0 0.0 1016.7 29.8
2016-Aug-22 06:00N 24°02' W 070°42'3 0.6 1017.1 29.8
2016-Aug-22 01:00N 24°02' W 070°38'2 2.4 1017.8 30.1
2016-Aug-22 00:00N 23°60' W 070°37'0 0.0 1017.3 30.2
2016-Aug-21 15:00N 23°60' W 070°37'10 0.5 1018.1 29.8
2016-Aug-20 21:00N 23°53' W 070°29'   1024.0 -0.1
Track history (hours):
 
Tides and Currents Weather Stations Pressure Air Temp Water Temp Dewpoint Dewpoint Depression Visibility Wind Speed Wind Dir Waves Ship Positions

Drifting buoy 13519

Last reported at 2016-Aug-30 13:00 UTC. Time now 2016-Aug-30 17:04 UTC.
Position N 26°16' W 070°30'.

Barometer 1017.3 mb
Water temperature 34.1 ° C

Date/timePositionNaut miles runAvg speedWind from/ knotsBaromVisibWave heightAir tempDewpointWater temp
2016-Aug-30 13:00N 26°16' W 070°30'1 1.1 1017.3 34.1
2016-Aug-30 12:00N 26°15' W 070°30'0 0.4 1016.9 34.1
2016-Aug-30 11:00N 26°14' W 070°31'2 1.2 1016.3 34.1
2016-Aug-30 09:00N 26°12' W 070°31'   1015.5 34.1
2016-Aug-25 00:00N 24°21' W 071°00'3 0.3 1015.4 29.8
2016-Aug-24 15:00N 24°19' W 070°58'5 4.9 1016.5 29.8
2016-Aug-24 14:00N 24°15' W 070°55'0 0.0 1016.7 -0.1
2016-Aug-24 13:00N 24°15' W 070°55'0 0.0 1016.3 29.7
2016-Aug-24 02:00N 24°15' W 070°55'1 1.5 1017.2 29.8
2016-Aug-24 01:00N 24°14' W 070°53'0 0.0 1017.0 29.8
2016-Aug-24 00:00N 24°14' W 070°53'0 0.0 1016.8 29.9
2016-Aug-23 23:00N 24°14' W 070°53'1 0.4 1016.4 29.9
2016-Aug-23 20:00N 24°13' W 070°53'1 0.6 1016.1 30.1
2016-Aug-23 19:00N 24°12' W 070°53'0 0.0 1016.8 30.1
2016-Aug-23 17:00N 24°12' W 070°53'1 0.3 1018.2 30.0
2016-Aug-23 15:00N 24°12' W 070°53'2 2.1 1018.4 29.7
2016-Aug-23 14:00N 24°10' W 070°51'0 0.2 1018.3 29.6
2016-Aug-23 13:00N 24°10' W 070°51'2 0.9 1018.2 29.6
2016-Aug-23 11:00N 24°09' W 070°50'0 0.2 1017.8 29.6
2016-Aug-23 10:00N 24°09' W 070°50'1 1.2 1017.6 29.6
2016-Aug-23 09:00N 24°08' W 070°49'0 0.1 1016.9 29.6
2016-Aug-23 08:00N 24°08' W 070°49'0 0.0 1016.9 29.6
2016-Aug-23 07:00N 24°08' W 070°49'2 2.1 1016.9 29.6
2016-Aug-23 06:00N 24°08' W 070°47'0 0.1 1017.1 29.7
2016-Aug-23 02:00N 24°08' W 070°47'0 0.4 1018.5 29.9
2016-Aug-23 01:00N 24°08' W 070°47'0 0.0 1018.3 29.9
2016-Aug-23 00:00N 24°08' W 070°47'1 1.0 1017.9 30.0
2016-Aug-22 23:00N 24°07' W 070°46'0 0.5 1017.4 30.2
2016-Aug-22 22:00N 24°06' W 070°46'1 0.9 1016.9 30.4
2016-Aug-22 21:00N 24°06' W 070°46'0 0.0 1016.6 30.6
2016-Aug-22 20:00N 24°06' W 070°46'1 0.8 1016.9 30.8
2016-Aug-22 19:00N 24°05' W 070°45'2 0.4 1017.0 30.9
2016-Aug-22 15:00N 24°04' W 070°44'0 0.4 1018.6 30.1
2016-Aug-22 14:00N 24°05' W 070°44'1 1.2 1018.5 29.8
2016-Aug-22 13:00N 24°04' W 070°43'0 0.0 1018.5 29.7
2016-Aug-22 12:00N 24°04' W 070°43'0 0.2 1018.0 29.7
2016-Aug-22 11:00N 24°04' W 070°43'1 0.6 1017.6 29.6
2016-Aug-22 10:00N 24°03' W 070°42'1 0.3 1016.8 29.6
2016-Aug-22 08:00N 24°03' W 070°42'1 0.5 1016.6 29.7
2016-Aug-22 07:00N 24°02' W 070°42'0 0.0 1016.7 29.8
2016-Aug-22 06:00N 24°02' W 070°42'3 0.6 1017.1 29.8
2016-Aug-22 01:00N 24°02' W 070°38'2 2.4 1017.8 30.1
2016-Aug-22 00:00N 23°60' W 070°37'0 0.0 1017.3 30.2
2016-Aug-21 15:00N 23°60' W 070°37'10 0.5 1018.1 29.8
2016-Aug-20 21:00N 23°53' W 070°29'   1024.0 -0.1

Dump ship's entire track history